sensor_id;sensor_type;location;lat;lon;timestamp;P1;durP1;ratioP1;P2;durP2;ratioP2
11348;SDS011;5729;43.570;27.826;2023-03-13T00:00:17;24.33;;;12.93;;
11348;SDS011;5729;43.570;27.826;2023-03-13T00:02:43;25.20;;;13.77;;
11348;SDS011;5729;43.570;27.826;2023-03-13T00:05:10;22.57;;;12.57;;
11348;SDS011;5729;43.570;27.826;2023-03-13T00:07:36;21.27;;;12.70;;
11348;SDS011;5729;43.570;27.826;2023-03-13T00:10:01;20.63;;;13.20;;
11348;SDS011;5729;43.570;27.826;2023-03-13T00:12:27;25.97;;;13.57;;
11348;SDS011;5729;43.570;27.826;2023-03-13T00:14:52;26.70;;;13.07;;
11348;SDS011;5729;43.570;27.826;2023-03-13T00:17:18;21.60;;;12.40;;
11348;SDS011;5729;43.570;27.826;2023-03-13T00:19:43;20.83;;;11.90;;
11348;SDS011;5729;43.570;27.826;2023-03-13T00:22:09;29.37;;;13.87;;
11348;SDS011;5729;43.570;27.826;2023-03-13T00:24:34;23.10;;;14.67;;
11348;SDS011;5729;43.570;27.826;2023-03-13T00:27:00;30.77;;;15.37;;
11348;SDS011;5729;43.570;27.826;2023-03-13T00:29:28;21.97;;;14.20;;
11348;SDS011;5729;43.570;27.826;2023-03-13T00:31:54;29.40;;;16.97;;
11348;SDS011;5729;43.570;27.826;2023-03-13T00:34:19;28.00;;;14.10;;
11348;SDS011;5729;43.570;27.826;2023-03-13T00:36:45;20.70;;;14.03;;
11348;SDS011;5729;43.570;27.826;2023-03-13T00:39:10;26.03;;;13.70;;
11348;SDS011;5729;43.570;27.826;2023-03-13T00:41:36;25.97;;;13.80;;
11348;SDS011;5729;43.570;27.826;2023-03-13T00:44:02;26.03;;;14.20;;
11348;SDS011;5729;43.570;27.826;2023-03-13T00:46:28;23.80;;;13.07;;
11348;SDS011;5729;43.570;27.826;2023-03-13T00:48:54;27.03;;;13.93;;
11348;SDS011;5729;43.570;27.826;2023-03-13T00:51:21;32.33;;;15.33;;
11348;SDS011;5729;43.570;27.826;2023-03-13T00:53:48;25.60;;;16.47;;
11348;SDS011;5729;43.570;27.826;2023-03-13T00:56:17;30.73;;;16.97;;
11348;SDS011;5729;43.570;27.826;2023-03-13T00:58:44;36.23;;;20.67;;
11348;SDS011;5729;43.570;27.826;2023-03-13T01:01:15;38.67;;;21.73;;
11348;SDS011;5729;43.570;27.826;2023-03-13T01:03:49;32.87;;;17.97;;
11348;SDS011;5729;43.570;27.826;2023-03-13T01:06:17;30.90;;;16.23;;
11348;SDS011;5729;43.570;27.826;2023-03-13T01:08:45;26.63;;;14.57;;
11348;SDS011;5729;43.570;27.826;2023-03-13T01:11:11;20.23;;;13.40;;
11348;SDS011;5729;43.570;27.826;2023-03-13T01:13:42;19.07;;;12.03;;
11348;SDS011;5729;43.570;27.826;2023-03-13T01:16:12;18.97;;;12.23;;
11348;SDS011;5729;43.570;27.826;2023-03-13T01:18:40;20.10;;;12.87;;
11348;SDS011;5729;43.570;27.826;2023-03-13T01:21:08;20.93;;;11.70;;
11348;SDS011;5729;43.570;27.826;2023-03-13T01:23:33;20.17;;;11.47;;
11348;SDS011;5729;43.570;27.826;2023-03-13T01:25:59;21.37;;;12.40;;
11348;SDS011;5729;43.570;27.826;2023-03-13T01:28:28;19.13;;;11.83;;
11348;SDS011;5729;43.570;27.826;2023-03-13T01:30:53;21.60;;;12.53;;
11348;SDS011;5729;43.570;27.826;2023-03-13T01:33:19;17.57;;;11.07;;
11348;SDS011;5729;43.570;27.826;2023-03-13T01:35:44;19.67;;;11.70;;
11348;SDS011;5729;43.570;27.826;2023-03-13T01:38:09;18.40;;;12.57;;
11348;SDS011;5729;43.570;27.826;2023-03-13T01:40:39;21.33;;;12.43;;
11348;SDS011;5729;43.570;27.826;2023-03-13T01:48:44;30.20;;;16.13;;
11348;SDS011;5729;43.570;27.826;2023-03-13T01:53:46;21.90;;;13.23;;
11348;SDS011;5729;43.570;27.826;2023-03-13T01:56:23;23.33;;;12.97;;
11348;SDS011;5729;43.570;27.826;2023-03-13T01:58:54;26.23;;;14.63;;
11348;SDS011;5729;43.570;27.826;2023-03-13T02:01:23;23.73;;;13.20;;
11348;SDS011;5729;43.570;27.826;2023-03-13T02:03:49;21.83;;;12.43;;
11348;SDS011;5729;43.570;27.826;2023-03-13T02:06:15;19.50;;;12.17;;
11348;SDS011;5729;43.570;27.826;2023-03-13T02:08:42;22.90;;;11.63;;
11348;SDS011;5729;43.570;27.826;2023-03-13T02:11:31;21.07;;;12.93;;
11348;SDS011;5729;43.570;27.826;2023-03-13T02:14:07;22.47;;;12.33;;
11348;SDS011;5729;43.570;27.826;2023-03-13T02:16:33;21.13;;;12.97;;
11348;SDS011;5729;43.570;27.826;2023-03-13T02:19:05;21.37;;;12.77;;
11348;SDS011;5729;43.570;27.826;2023-03-13T02:21:49;22.17;;;12.20;;
11348;SDS011;5729;43.570;27.826;2023-03-13T02:26:56;23.83;;;12.50;;
11348;SDS011;5729;43.570;27.826;2023-03-13T02:29:21;20.73;;;12.33;;
11348;SDS011;5729;43.570;27.826;2023-03-13T02:31:49;31.83;;;12.27;;
11348;SDS011;5729;43.570;27.826;2023-03-13T02:34:17;19.80;;;12.67;;
11348;SDS011;5729;43.570;27.826;2023-03-13T02:36:46;21.13;;;13.07;;
11348;SDS011;5729;43.570;27.826;2023-03-13T02:39:13;19.30;;;12.37;;
11348;SDS011;5729;43.570;27.826;2023-03-13T02:41:43;24.50;;;13.83;;
11348;SDS011;5729;43.570;27.826;2023-03-13T02:44:10;24.53;;;13.27;;
11348;SDS011;5729;43.570;27.826;2023-03-13T02:46:49;27.37;;;13.50;;
11348;SDS011;5729;43.570;27.826;2023-03-13T02:49:34;26.37;;;13.80;;
11348;SDS011;5729;43.570;27.826;2023-03-13T02:52:20;21.97;;;12.37;;
11348;SDS011;5729;43.570;27.826;2023-03-13T02:54:51;16.03;;;8.47;;
11348;SDS011;5729;43.570;27.826;2023-03-13T02:57:22;11.00;;;7.10;;
11348;SDS011;5729;43.570;27.826;2023-03-13T02:59:48;11.60;;;6.60;;
11348;SDS011;5729;43.570;27.826;2023-03-13T03:02:14;12.83;;;7.67;;
11348;SDS011;5729;43.570;27.826;2023-03-13T03:04:39;18.80;;;10.43;;
11348;SDS011;5729;43.570;27.826;2023-03-13T03:07:05;18.70;;;10.03;;
11348;SDS011;5729;43.570;27.826;2023-03-13T03:09:31;14.73;;;7.00;;
11348;SDS011;5729;43.570;27.826;2023-03-13T03:11:57;21.93;;;10.00;;
11348;SDS011;5729;43.570;27.826;2023-03-13T03:14:22;19.27;;;10.33;;
11348;SDS011;5729;43.570;27.826;2023-03-13T03:16:48;18.80;;;9.97;;
11348;SDS011;5729;43.570;27.826;2023-03-13T03:19:13;19.83;;;11.20;;
11348;SDS011;5729;43.570;27.826;2023-03-13T03:21:39;22.17;;;12.57;;
11348;SDS011;5729;43.570;27.826;2023-03-13T03:24:04;22.83;;;12.70;;
11348;SDS011;5729;43.570;27.826;2023-03-13T03:26:30;25.57;;;13.03;;
11348;SDS011;5729;43.570;27.826;2023-03-13T03:28:56;21.77;;;11.60;;
11348;SDS011;5729;43.570;27.826;2023-03-13T03:31:21;20.90;;;12.70;;
11348;SDS011;5729;43.570;27.826;2023-03-13T03:33:47;24.37;;;13.70;;
11348;SDS011;5729;43.570;27.826;2023-03-13T03:36:13;27.20;;;13.43;;
11348;SDS011;5729;43.570;27.826;2023-03-13T03:38:44;27.17;;;14.17;;
11348;SDS011;5729;43.570;27.826;2023-03-13T03:41:09;25.20;;;13.83;;
11348;SDS011;5729;43.570;27.826;2023-03-13T03:43:36;32.43;;;13.77;;
11348;SDS011;5729;43.570;27.826;2023-03-13T03:46:02;29.50;;;14.10;;
11348;SDS011;5729;43.570;27.826;2023-03-13T03:48:28;24.03;;;13.73;;
11348;SDS011;5729;43.570;27.826;2023-03-13T03:50:54;27.20;;;13.70;;
11348;SDS011;5729;43.570;27.826;2023-03-13T03:53:19;26.07;;;14.63;;
11348;SDS011;5729;43.570;27.826;2023-03-13T03:55:45;22.57;;;13.63;;
11348;SDS011;5729;43.570;27.826;2023-03-13T03:58:10;23.97;;;13.97;;
11348;SDS011;5729;43.570;27.826;2023-03-13T04:00:36;26.20;;;14.30;;
11348;SDS011;5729;43.570;27.826;2023-03-13T04:03:01;26.10;;;14.33;;
11348;SDS011;5729;43.570;27.826;2023-03-13T04:05:27;28.47;;;13.63;;
11348;SDS011;5729;43.570;27.826;2023-03-13T04:07:52;29.77;;;13.83;;
11348;SDS011;5729;43.570;27.826;2023-03-13T04:10:18;25.53;;;13.00;;
11348;SDS011;5729;43.570;27.826;2023-03-13T04:12:43;21.27;;;11.73;;
11348;SDS011;5729;43.570;27.826;2023-03-13T04:15:09;24.10;;;10.80;;
11348;SDS011;5729;43.570;27.826;2023-03-13T04:17:35;22.83;;;11.43;;
11348;SDS011;5729;43.570;27.826;2023-03-13T04:20:00;21.93;;;11.13;;
11348;SDS011;5729;43.570;27.826;2023-03-13T04:22:26;23.10;;;11.57;;
11348;SDS011;5729;43.570;27.826;2023-03-13T04:24:51;24.83;;;12.13;;
11348;SDS011;5729;43.570;27.826;2023-03-13T04:27:16;20.53;;;11.63;;
11348;SDS011;5729;43.570;27.826;2023-03-13T04:29:42;22.37;;;12.40;;
11348;SDS011;5729;43.570;27.826;2023-03-13T04:32:08;21.60;;;12.13;;
11348;SDS011;5729;43.570;27.826;2023-03-13T04:34:33;20.27;;;11.87;;
11348;SDS011;5729;43.570;27.826;2023-03-13T04:36:59;22.37;;;13.20;;
11348;SDS011;5729;43.570;27.826;2023-03-13T04:39:24;31.20;;;12.73;;
11348;SDS011;5729;43.570;27.826;2023-03-13T04:41:53;30.20;;;14.37;;
11348;SDS011;5729;43.570;27.826;2023-03-13T04:44:20;26.30;;;13.27;;
11348;SDS011;5729;43.570;27.826;2023-03-13T04:46:47;25.43;;;13.57;;
11348;SDS011;5729;43.570;27.826;2023-03-13T04:49:12;26.03;;;14.87;;
11348;SDS011;5729;43.570;27.826;2023-03-13T04:51:39;35.53;;;18.30;;
11348;SDS011;5729;43.570;27.826;2023-03-13T04:54:05;38.47;;;19.53;;
11348;SDS011;5729;43.570;27.826;2023-03-13T04:56:30;37.60;;;22.10;;
11348;SDS011;5729;43.570;27.826;2023-03-13T04:58:56;41.30;;;21.80;;
11348;SDS011;5729;43.570;27.826;2023-03-13T05:01:21;40.07;;;21.27;;
11348;SDS011;5729;43.570;27.826;2023-03-13T05:03:47;38.43;;;20.27;;
11348;SDS011;5729;43.570;27.826;2023-03-13T05:06:12;29.80;;;18.33;;
11348;SDS011;5729;43.570;27.826;2023-03-13T05:08:38;29.63;;;17.67;;
11348;SDS011;5729;43.570;27.826;2023-03-13T05:11:03;80.97;;;41.47;;
11348;SDS011;5729;43.570;27.826;2023-03-13T05:13:29;43.40;;;21.77;;
11348;SDS011;5729;43.570;27.826;2023-03-13T05:15:55;45.97;;;26.77;;
11348;SDS011;5729;43.570;27.826;2023-03-13T05:18:20;45.20;;;22.77;;
11348;SDS011;5729;43.570;27.826;2023-03-13T05:20:46;46.07;;;22.27;;
11348;SDS011;5729;43.570;27.826;2023-03-13T05:23:12;41.20;;;20.63;;
11348;SDS011;5729;43.570;27.826;2023-03-13T05:25:37;40.93;;;23.30;;
11348;SDS011;5729;43.570;27.826;2023-03-13T05:28:02;38.70;;;21.70;;
11348;SDS011;5729;43.570;27.826;2023-03-13T05:30:28;44.20;;;24.20;;
11348;SDS011;5729;43.570;27.826;2023-03-13T05:32:54;41.53;;;25.13;;
11348;SDS011;5729;43.570;27.826;2023-03-13T05:35:19;34.37;;;22.10;;
11348;SDS011;5729;43.570;27.826;2023-03-13T05:37:44;39.13;;;22.13;;
11348;SDS011;5729;43.570;27.826;2023-03-13T05:40:10;41.70;;;20.53;;
11348;SDS011;5729;43.570;27.826;2023-03-13T05:42:37;36.20;;;19.77;;
11348;SDS011;5729;43.570;27.826;2023-03-13T05:45:02;40.33;;;18.63;;
11348;SDS011;5729;43.570;27.826;2023-03-13T05:47:28;47.43;;;19.77;;
11348;SDS011;5729;43.570;27.826;2023-03-13T05:49:53;43.53;;;20.30;;
11348;SDS011;5729;43.570;27.826;2023-03-13T05:52:19;44.77;;;20.33;;
11348;SDS011;5729;43.570;27.826;2023-03-13T05:54:44;43.70;;;21.97;;
11348;SDS011;5729;43.570;27.826;2023-03-13T05:57:09;50.97;;;22.50;;
11348;SDS011;5729;43.570;27.826;2023-03-13T05:59:35;57.10;;;24.57;;
11348;SDS011;5729;43.570;27.826;2023-03-13T06:02:00;53.00;;;26.07;;
11348;SDS011;5729;43.570;27.826;2023-03-13T06:04:26;56.93;;;26.97;;
11348;SDS011;5729;43.570;27.826;2023-03-13T06:06:51;65.93;;;34.53;;
11348;SDS011;5729;43.570;27.826;2023-03-13T06:09:17;72.87;;;36.10;;
11348;SDS011;5729;43.570;27.826;2023-03-13T06:11:42;73.33;;;40.10;;
11348;SDS011;5729;43.570;27.826;2023-03-13T06:14:07;80.73;;;41.30;;
11348;SDS011;5729;43.570;27.826;2023-03-13T06:16:33;76.27;;;39.70;;
11348;SDS011;5729;43.570;27.826;2023-03-13T06:18:58;78.00;;;41.13;;
11348;SDS011;5729;43.570;27.826;2023-03-13T06:21:24;78.80;;;42.87;;
11348;SDS011;5729;43.570;27.826;2023-03-13T06:23:49;76.50;;;43.23;;
11348;SDS011;5729;43.570;27.826;2023-03-13T06:26:15;76.20;;;44.53;;
11348;SDS011;5729;43.570;27.826;2023-03-13T06:28:40;491.63;;;219.83;;
11348;SDS011;5729;43.570;27.826;2023-03-13T06:31:06;276.70;;;136.43;;
11348;SDS011;5729;43.570;27.826;2023-03-13T06:33:32;329.80;;;177.17;;
11348;SDS011;5729;43.570;27.826;2023-03-13T06:35:59;406.75;;;235.35;;
11348;SDS011;5729;43.570;27.826;2023-03-13T06:38:26;152.87;;;90.70;;
11348;SDS011;5729;43.570;27.826;2023-03-13T06:40:52;109.90;;;66.43;;
11348;SDS011;5729;43.570;27.826;2023-03-13T06:43:18;94.07;;;52.50;;
11348;SDS011;5729;43.570;27.826;2023-03-13T06:45:44;89.77;;;45.40;;
11348;SDS011;5729;43.570;27.826;2023-03-13T06:48:10;71.23;;;39.63;;
11348;SDS011;5729;43.570;27.826;2023-03-13T06:50:38;62.43;;;38.10;;
11348;SDS011;5729;43.570;27.826;2023-03-13T06:53:03;66.87;;;34.03;;
11348;SDS011;5729;43.570;27.826;2023-03-13T06:55:29;78.37;;;37.23;;
11348;SDS011;5729;43.570;27.826;2023-03-13T06:57:54;57.93;;;34.70;;
11348;SDS011;5729;43.570;27.826;2023-03-13T07:00:20;111.57;;;57.77;;
11348;SDS011;5729;43.570;27.826;2023-03-13T07:02:46;73.25;;;41.20;;
11348;SDS011;5729;43.570;27.826;2023-03-13T07:05:11;57.22;;;35.90;;
11348;SDS011;5729;43.570;27.826;2023-03-13T07:07:38;58.53;;;37.92;;
11348;SDS011;5729;43.570;27.826;2023-03-13T07:10:07;62.38;;;33.47;;
11348;SDS011;5729;43.570;27.826;2023-03-13T07:12:34;67.88;;;41.47;;
11348;SDS011;5729;43.570;27.826;2023-03-13T07:15:01;76.00;;;46.72;;
11348;SDS011;5729;43.570;27.826;2023-03-13T07:17:26;73.57;;;47.58;;
11348;SDS011;5729;43.570;27.826;2023-03-13T07:19:52;47.33;;;31.08;;
11348;SDS011;5729;43.570;27.826;2023-03-13T07:22:17;35.88;;;23.10;;
11348;SDS011;5729;43.570;27.826;2023-03-13T07:24:43;29.77;;;15.82;;
11348;SDS011;5729;43.570;27.826;2023-03-13T07:27:08;21.20;;;13.25;;
11348;SDS011;5729;43.570;27.826;2023-03-13T07:29:34;11.38;;;6.07;;
11348;SDS011;5729;43.570;27.826;2023-03-13T07:31:59;10.35;;;6.85;;
11348;SDS011;5729;43.570;27.826;2023-03-13T07:34:24;9.80;;;5.03;;
11348;SDS011;5729;43.570;27.826;2023-03-13T07:36:50;13.38;;;6.80;;
11348;SDS011;5729;43.570;27.826;2023-03-13T07:39:15;8.32;;;5.30;;
11348;SDS011;5729;43.570;27.826;2023-03-13T07:41:41;4.85;;;3.63;;
11348;SDS011;5729;43.570;27.826;2023-03-13T07:44:06;7.22;;;3.58;;
11348;SDS011;5729;43.570;27.826;2023-03-13T07:46:32;6.93;;;3.65;;
11348;SDS011;5729;43.570;27.826;2023-03-13T07:48:57;8.13;;;3.78;;
11348;SDS011;5729;43.570;27.826;2023-03-13T07:51:23;6.25;;;3.78;;
11348;SDS011;5729;43.570;27.826;2023-03-13T07:53:51;6.93;;;3.50;;
11348;SDS011;5729;43.570;27.826;2023-03-13T07:56:17;5.47;;;3.20;;
11348;SDS011;5729;43.570;27.826;2023-03-13T07:58:45;13.40;;;6.65;;
11348;SDS011;5729;43.570;27.826;2023-03-13T08:01:17;6.55;;;3.95;;
11348;SDS011;5729;43.570;27.826;2023-03-13T08:03:51;6.97;;;4.68;;
11348;SDS011;5729;43.570;27.826;2023-03-13T08:06:19;5.03;;;3.70;;
11348;SDS011;5729;43.570;27.826;2023-03-13T08:08:47;4.35;;;3.10;;
11348;SDS011;5729;43.570;27.826;2023-03-13T08:11:17;5.30;;;2.72;;
11348;SDS011;5729;43.570;27.826;2023-03-13T08:13:44;4.88;;;2.50;;
11348;SDS011;5729;43.570;27.826;2023-03-13T08:16:11;5.45;;;3.00;;
11348;SDS011;5729;43.570;27.826;2023-03-13T08:18:39;7.13;;;3.70;;
11348;SDS011;5729;43.570;27.826;2023-03-13T08:21:07;14.70;;;7.10;;
11348;SDS011;5729;43.570;27.826;2023-03-13T08:23:37;8.63;;;3.78;;
11348;SDS011;5729;43.570;27.826;2023-03-13T08:26:07;5.85;;;3.10;;
11348;SDS011;5729;43.570;27.826;2023-03-13T08:28:34;5.53;;;3.25;;
11348;SDS011;5729;43.570;27.826;2023-03-13T08:31:11;6.40;;;2.40;;
11348;SDS011;5729;43.570;27.826;2023-03-13T08:33:42;28.17;;;21.33;;
11348;SDS011;5729;43.570;27.826;2023-03-13T08:36:12;4.68;;;2.80;;
11348;SDS011;5729;43.570;27.826;2023-03-13T08:38:49;2.20;;;2.00;;
11348;SDS011;5729;43.570;27.826;2023-03-13T08:41:17;2.20;;;2.00;;
11348;SDS011;5729;43.570;27.826;2023-03-13T08:43:45;3.75;;;3.05;;
11348;SDS011;5729;43.570;27.826;2023-03-13T08:46:11;2.38;;;2.08;;
11348;SDS011;5729;43.570;27.826;2023-03-13T08:48:37;2.80;;;2.40;;
11348;SDS011;5729;43.570;27.826;2023-03-13T08:51:03;2.63;;;2.38;;
11348;SDS011;5729;43.570;27.826;2023-03-13T08:53:32;3.63;;;2.70;;
11348;SDS011;5729;43.570;27.826;2023-03-13T08:55:58;2.85;;;2.45;;
11348;SDS011;5729;43.570;27.826;2023-03-13T08:58:24;7.93;;;2.40;;
11348;SDS011;5729;43.570;27.826;2023-03-13T09:00:50;3.22;;;2.20;;
11348;SDS011;5729;43.570;27.826;2023-03-13T09:03:15;3.78;;;2.47;;
11348;SDS011;5729;43.570;27.826;2023-03-13T09:05:42;2.95;;;2.33;;
11348;SDS011;5729;43.570;27.826;2023-03-13T09:08:08;4.55;;;2.70;;
11348;SDS011;5729;43.570;27.826;2023-03-13T09:10:34;4.95;;;2.22;;
11348;SDS011;5729;43.570;27.826;2023-03-13T09:13:00;3.88;;;2.20;;
11348;SDS011;5729;43.570;27.826;2023-03-13T09:15:26;4.78;;;2.65;;
11348;SDS011;5729;43.570;27.826;2023-03-13T09:17:51;2.92;;;2.42;;
11348;SDS011;5729;43.570;27.826;2023-03-13T09:20:17;2.22;;;2.00;;
11348;SDS011;5729;43.570;27.826;2023-03-13T09:22:43;5.85;;;2.85;;
11348;SDS011;5729;43.570;27.826;2023-03-13T09:25:10;3.50;;;2.42;;
11348;SDS011;5729;43.570;27.826;2023-03-13T09:27:36;3.22;;;2.20;;
11348;SDS011;5729;43.570;27.826;2023-03-13T09:30:02;5.70;;;2.83;;
11348;SDS011;5729;43.570;27.826;2023-03-13T09:32:27;3.83;;;2.65;;
11348;SDS011;5729;43.570;27.826;2023-03-13T09:34:53;2.95;;;2.58;;
11348;SDS011;5729;43.570;27.826;2023-03-13T09:37:19;2.50;;;2.28;;
11348;SDS011;5729;43.570;27.826;2023-03-13T09:39:47;7.30;;;3.13;;
11348;SDS011;5729;43.570;27.826;2023-03-13T09:42:14;3.03;;;2.45;;
11348;SDS011;5729;43.570;27.826;2023-03-13T09:44:55;2.90;;;2.13;;
11348;SDS011;5729;43.570;27.826;2023-03-13T09:47:29;3.35;;;2.20;;
11348;SDS011;5729;43.570;27.826;2023-03-13T09:50:19;4.80;;;2.05;;
11348;SDS011;5729;43.570;27.826;2023-03-13T09:52:50;4.60;;;1.92;;
11348;SDS011;5729;43.570;27.826;2023-03-13T09:55:28;7.05;;;2.35;;
11348;SDS011;5729;43.570;27.826;2023-03-13T10:00:48;3.60;;;2.47;;
11348;SDS011;5729;43.570;27.826;2023-03-13T10:06:00;7.88;;;2.40;;
11348;SDS011;5729;43.570;27.826;2023-03-13T10:08:35;7.68;;;2.60;;
11348;SDS011;5729;43.570;27.826;2023-03-13T10:13:48;4.00;;;2.58;;
11348;SDS011;5729;43.570;27.826;2023-03-13T10:16:23;5.05;;;2.42;;
11348;SDS011;5729;43.570;27.826;2023-03-13T10:18:55;7.78;;;2.15;;
11348;SDS011;5729;43.570;27.826;2023-03-13T10:21:24;2.90;;;2.40;;
11348;SDS011;5729;43.570;27.826;2023-03-13T10:26:55;2.78;;;2.30;;
11348;SDS011;5729;43.570;27.826;2023-03-13T10:29:22;4.22;;;2.95;;
11348;SDS011;5729;43.570;27.826;2023-03-13T10:34:29;6.65;;;3.10;;
11348;SDS011;5729;43.570;27.826;2023-03-13T10:37:11;4.45;;;2.10;;
11348;SDS011;5729;43.570;27.826;2023-03-13T10:39:39;4.82;;;2.20;;
11348;SDS011;5729;43.570;27.826;2023-03-13T10:42:08;6.15;;;2.97;;
11348;SDS011;5729;43.570;27.826;2023-03-13T10:45:04;4.25;;;3.63;;
11348;SDS011;5729;43.570;27.826;2023-03-13T10:47:33;3.33;;;2.80;;
11348;SDS011;5729;43.570;27.826;2023-03-13T10:50:02;2.85;;;2.20;;
11348;SDS011;5729;43.570;27.826;2023-03-13T10:52:29;3.03;;;1.90;;
11348;SDS011;5729;43.570;27.826;2023-03-13T10:55:05;2.55;;;2.22;;
11348;SDS011;5729;43.570;27.826;2023-03-13T10:57:32;4.18;;;2.90;;
11348;SDS011;5729;43.570;27.826;2023-03-13T11:00:02;10.27;;;3.08;;
11348;SDS011;5729;43.570;27.826;2023-03-13T11:02:47;6.43;;;2.13;;
11348;SDS011;5729;43.570;27.826;2023-03-13T11:07:51;13.35;;;11.77;;
11348;SDS011;5729;43.570;27.826;2023-03-13T11:10:35;6.88;;;4.53;;
11348;SDS011;5729;43.570;27.826;2023-03-13T11:13:01;4.80;;;2.30;;
11348;SDS011;5729;43.570;27.826;2023-03-13T11:18:00;2.65;;;2.20;;
11348;SDS011;5729;43.570;27.826;2023-03-13T11:20:34;3.03;;;2.10;;
11348;SDS011;5729;43.570;27.826;2023-03-13T11:23:08;4.47;;;3.45;;
11348;SDS011;5729;43.570;27.826;2023-03-13T11:31:29;3.72;;;1.77;;
11348;SDS011;5729;43.570;27.826;2023-03-13T11:34:05;4.68;;;2.35;;
11348;SDS011;5729;43.570;27.826;2023-03-13T11:36:59;4.68;;;1.90;;
11348;SDS011;5729;43.570;27.826;2023-03-13T11:50:51;5.18;;;2.10;;
11348;SDS011;5729;43.570;27.826;2023-03-13T11:53:49;1.95;;;1.70;;
11348;SDS011;5729;43.570;27.826;2023-03-13T11:56:36;2.63;;;1.48;;
11348;SDS011;5729;43.570;27.826;2023-03-13T12:01:34;3.60;;;1.98;;
11348;SDS011;5729;43.570;27.826;2023-03-13T12:06:57;5.97;;;2.13;;
11348;SDS011;5729;43.570;27.826;2023-03-13T12:09:32;5.25;;;1.83;;
11348;SDS011;5729;43.570;27.826;2023-03-13T12:12:04;4.30;;;1.77;;
11348;SDS011;5729;43.570;27.826;2023-03-13T12:14:46;2.33;;;1.75;;
11348;SDS011;5729;43.570;27.826;2023-03-13T12:20:15;2.70;;;1.90;;
11348;SDS011;5729;43.570;27.826;2023-03-13T12:22:55;4.05;;;2.10;;
11348;SDS011;5729;43.570;27.826;2023-03-13T12:25:29;4.63;;;2.08;;
11348;SDS011;5729;43.570;27.826;2023-03-13T12:28:10;6.72;;;2.30;;
11348;SDS011;5729;43.570;27.826;2023-03-13T12:30:55;6.90;;;1.80;;
11348;SDS011;5729;43.570;27.826;2023-03-13T12:36:20;10.48;;;2.25;;
11348;SDS011;5729;43.570;27.826;2023-03-13T12:38:57;7.50;;;1.70;;
11348;SDS011;5729;43.570;27.826;2023-03-13T12:41:34;5.45;;;1.67;;
11348;SDS011;5729;43.570;27.826;2023-03-13T12:44:08;4.20;;;1.90;;
11348;SDS011;5729;43.570;27.826;2023-03-13T12:54:11;3.95;;;1.50;;
11348;SDS011;5729;43.570;27.826;2023-03-13T12:59:39;4.65;;;2.17;;
11348;SDS011;5729;43.570;27.826;2023-03-13T13:04:50;7.70;;;2.42;;
11348;SDS011;5729;43.570;27.826;2023-03-13T13:12:36;21.00;;;8.80;;
11348;SDS011;5729;43.570;27.826;2023-03-13T13:15:36;11.05;;;4.65;;
11348;SDS011;5729;43.570;27.826;2023-03-13T13:18:12;8.23;;;2.30;;
11348;SDS011;5729;43.570;27.826;2023-03-13T13:20:49;9.65;;;2.60;;
11348;SDS011;5729;43.570;27.826;2023-03-13T13:23:39;6.50;;;2.00;;
11348;SDS011;5729;43.570;27.826;2023-03-13T13:28:54;4.57;;;2.22;;
11348;SDS011;5729;43.570;27.826;2023-03-13T13:36:52;4.45;;;2.20;;
11348;SDS011;5729;43.570;27.826;2023-03-13T13:48:12;8.43;;;1.90;;
11348;SDS011;5729;43.570;27.826;2023-03-13T13:53:43;5.57;;;2.15;;
11348;SDS011;5729;43.570;27.826;2023-03-13T13:58:57;3.85;;;2.67;;
11348;SDS011;5729;43.570;27.826;2023-03-13T14:01:24;5.80;;;2.85;;
11348;SDS011;5729;43.570;27.826;2023-03-13T14:03:50;6.63;;;2.42;;
11348;SDS011;5729;43.570;27.826;2023-03-13T14:06:20;3.65;;;2.33;;
11348;SDS011;5729;43.570;27.826;2023-03-13T14:08:52;6.93;;;2.25;;
11348;SDS011;5729;43.570;27.826;2023-03-13T14:14:08;11.52;;;6.32;;
11348;SDS011;5729;43.570;27.826;2023-03-13T14:17:02;44.75;;;27.73;;
11348;SDS011;5729;43.570;27.826;2023-03-13T14:19:28;4.38;;;1.95;;
11348;SDS011;5729;43.570;27.826;2023-03-13T14:22:02;4.32;;;2.05;;
11348;SDS011;5729;43.570;27.826;2023-03-13T14:24:32;4.40;;;2.22;;
11348;SDS011;5729;43.570;27.826;2023-03-13T14:26:58;4.07;;;1.67;;
11348;SDS011;5729;43.570;27.826;2023-03-13T14:29:24;4.15;;;2.97;;
11348;SDS011;5729;43.570;27.826;2023-03-13T14:31:54;5.60;;;2.85;;
11348;SDS011;5729;43.570;27.826;2023-03-13T14:34:21;7.10;;;2.13;;
11348;SDS011;5729;43.570;27.826;2023-03-13T14:42:01;5.07;;;3.33;;
11348;SDS011;5729;43.570;27.826;2023-03-13T14:44:29;6.20;;;2.80;;
11348;SDS011;5729;43.570;27.826;2023-03-13T14:46:58;4.53;;;2.80;;
11348;SDS011;5729;43.570;27.826;2023-03-13T14:49:28;2.83;;;2.05;;
11348;SDS011;5729;43.570;27.826;2023-03-13T14:54:50;4.63;;;3.50;;
11348;SDS011;5729;43.570;27.826;2023-03-13T14:57:19;6.22;;;3.10;;
11348;SDS011;5729;43.570;27.826;2023-03-13T14:59:47;6.32;;;3.28;;
11348;SDS011;5729;43.570;27.826;2023-03-13T15:04:49;5.22;;;3.90;;
11348;SDS011;5729;43.570;27.826;2023-03-13T15:07:41;8.35;;;3.83;;
11348;SDS011;5729;43.570;27.826;2023-03-13T15:12:48;12.25;;;8.30;;
11348;SDS011;5729;43.570;27.826;2023-03-13T15:15:15;8.18;;;5.60;;
11348;SDS011;5729;43.570;27.826;2023-03-13T15:17:40;7.80;;;5.20;;
11348;SDS011;5729;43.570;27.826;2023-03-13T15:20:06;6.55;;;4.47;;
11348;SDS011;5729;43.570;27.826;2023-03-13T15:22:36;9.32;;;5.40;;
11348;SDS011;5729;43.570;27.826;2023-03-13T15:25:05;10.32;;;3.88;;
11348;SDS011;5729;43.570;27.826;2023-03-13T15:27:38;6.88;;;4.38;;
11348;SDS011;5729;43.570;27.826;2023-03-13T15:30:04;11.45;;;4.30;;
11348;SDS011;5729;43.570;27.826;2023-03-13T15:32:34;9.50;;;3.97;;
11348;SDS011;5729;43.570;27.826;2023-03-13T15:35:01;9.93;;;4.38;;
11348;SDS011;5729;43.570;27.826;2023-03-13T15:37:35;12.80;;;9.70;;
11348;SDS011;5729;43.570;27.826;2023-03-13T15:40:01;6.30;;;4.68;;
11348;SDS011;5729;43.570;27.826;2023-03-13T15:42:31;14.80;;;12.60;;
11348;SDS011;5729;43.570;27.826;2023-03-13T15:44:56;10.75;;;4.32;;
11348;SDS011;5729;43.570;27.826;2023-03-13T15:47:22;7.25;;;4.28;;
11348;SDS011;5729;43.570;27.826;2023-03-13T15:49:47;6.32;;;3.45;;
11348;SDS011;5729;43.570;27.826;2023-03-13T15:52:14;5.90;;;3.60;;
11348;SDS011;5729;43.570;27.826;2023-03-13T15:54:43;12.32;;;5.97;;
11348;SDS011;5729;43.570;27.826;2023-03-13T15:57:13;7.88;;;5.03;;
11348;SDS011;5729;43.570;27.826;2023-03-13T15:59:40;6.40;;;3.10;;
11348;SDS011;5729;43.570;27.826;2023-03-13T16:02:13;19.05;;;10.52;;
11348;SDS011;5729;43.570;27.826;2023-03-13T16:04:40;14.35;;;10.35;;
11348;SDS011;5729;43.570;27.826;2023-03-13T16:07:13;12.65;;;8.60;;
11348;SDS011;5729;43.570;27.826;2023-03-13T16:09:40;10.05;;;6.75;;
11348;SDS011;5729;43.570;27.826;2023-03-13T16:12:07;27.85;;;18.58;;
11348;SDS011;5729;43.570;27.826;2023-03-13T16:14:33;5.85;;;3.45;;
11348;SDS011;5729;43.570;27.826;2023-03-13T16:16:59;7.63;;;3.42;;
11348;SDS011;5729;43.570;27.826;2023-03-13T16:19:25;9.77;;;3.80;;
11348;SDS011;5729;43.570;27.826;2023-03-13T16:21:51;7.45;;;3.35;;
11348;SDS011;5729;43.570;27.826;2023-03-13T16:24:17;10.93;;;3.20;;
11348;SDS011;5729;43.570;27.826;2023-03-13T16:26:43;3.70;;;2.90;;
11348;SDS011;5729;43.570;27.826;2023-03-13T16:29:12;4.82;;;2.55;;
11348;SDS011;5729;43.570;27.826;2023-03-13T16:31:39;7.00;;;2.25;;
11348;SDS011;5729;43.570;27.826;2023-03-13T16:34:05;3.85;;;2.30;;
11348;SDS011;5729;43.570;27.826;2023-03-13T16:36:32;3.47;;;2.53;;